Time;durP1;ratioP1;P1;durP2;ratioP2;P2;SDS_P1;SDS_P2;PMS_P1;PMS_P2;Temp;Humidity;BMP_temperature;BMP_pressure;BME280_temperature;BME280_humidity;BME280_pressure;Samples;Min_cycle;Max_cycle;Signal;HPM_P1;HPM_P2
2022/07/04 00:01:08;;;;;;;5.05;3.58;;;16.10;94.60;;;;;;5107411;28;20127;-43
2022/07/04 00:03:34;;;;;;;6.45;4.07;;;16.00;94.60;;;;;;5097047;28;20128;-43
2022/07/04 00:06:01;;;;;;;4.82;4.00;;;16.00;94.70;;;;;;5108685;28;20075;-42
2022/07/04 00:08:28;;;;;;;5.45;3.85;;;16.00;94.70;;;;;;5111066;28;20410;-43
2022/07/04 00:10:55;;;;;;;5.80;3.53;;;16.00;94.80;;;;;;5109372;27;20087;-43
2022/07/04 00:13:23;;;;;;;4.25;2.97;;;16.00;94.70;;;;;;5111363;27;20119;-42
2022/07/04 00:15:50;;;;;;;6.55;3.17;;;15.90;94.70;;;;;;5107359;27;20139;-43
2022/07/04 00:18:16;;;;;;;5.90;3.80;;;15.90;94.70;;;;;;5095680;28;20048;-43
2022/07/04 00:20:43;;;;;;;7.82;3.50;;;15.90;94.80;;;;;;5096786;28;20075;-43
2022/07/04 00:23:10;;;;;;;5.50;3.75;;;15.80;94.80;;;;;;5112014;28;20087;-42
2022/07/04 00:25:37;;;;;;;8.48;3.67;;;15.80;94.90;;;;;;5111971;27;20070;-42
2022/07/04 00:28:04;;;;;;;5.20;3.40;;;15.80;95.00;;;;;;5110510;27;20090;-42
2022/07/04 00:30:32;;;;;;;5.03;3.03;;;15.70;95.00;;;;;;5099063;28;20048;-42
2022/07/04 00:32:59;;;;;;;5.95;3.85;;;15.70;95.10;;;;;;5107308;27;20552;-42
2022/07/04 00:35:25;;;;;;;5.40;3.70;;;15.70;95.20;;;;;;5113982;27;20144;-43
2022/07/04 00:37:52;;;;;;;6.80;4.38;;;15.70;95.50;;;;;;5113519;27;20079;-44
2022/07/04 00:40:19;;;;;;;6.82;4.65;;;15.60;95.60;;;;;;5106594;27;20120;-43
2022/07/04 00:42:46;;;;;;;6.00;4.15;;;15.60;95.70;;;;;;5103748;27;20127;-43
2022/07/04 00:45:12;;;;;;;5.35;3.67;;;15.60;95.90;;;;;;5114056;28;20470;-44
2022/07/04 00:47:40;;;;;;;4.53;3.28;;;15.50;95.80;;;;;;5113956;27;20135;-43
2022/07/04 00:50:08;;;;;;;5.07;3.30;;;15.50;96.10;;;;;;5106955;27;20087;-43
2022/07/04 00:52:35;;;;;;;5.78;3.88;;;15.50;95.70;;;;;;5101022;28;20104;-43
2022/07/04 00:55:01;;;;;;;5.15;3.65;;;15.50;95.80;;;;;;5115818;28;20090;-43
2022/07/04 00:57:28;;;;;;;5.20;4.22;;;15.40;95.70;;;;;;5114718;28;20532;-43
2022/07/04 00:59:55;;;;;;;5.47;3.33;;;15.40;96.00;;;;;;5103256;28;20056;-43
2022/07/04 01:02:22;;;;;;;5.25;3.70;;;15.40;95.90;;;;;;5095852;27;20126;-43
2022/07/04 01:04:50;;;;;;;3.60;3.00;;;15.30;95.80;;;;;;5098322;27;20047;-43
2022/07/04 01:07:17;;;;;;;5.50;3.65;;;15.30;95.60;;;;;;5101785;27;20127;-41
2022/07/04 01:09:43;;;;;;;4.30;3.40;;;15.30;95.60;;;;;;5112991;27;20066;-43
2022/07/04 01:12:10;;;;;;;6.07;3.45;;;15.30;96.00;;;;;;5114290;28;20063;-43
2022/07/04 01:14:38;;;;;;;8.82;3.55;;;15.30;96.10;;;;;;5097595;28;20079;-43
2022/07/04 01:17:05;;;;;;;7.32;4.20;;;15.20;96.10;;;;;;5104085;28;20127;-43
2022/07/04 01:19:32;;;;;;;6.32;3.50;;;15.20;96.40;;;;;;5113937;27;20090;-43
2022/07/04 01:22:05;;;;;;;4.35;3.80;;;15.20;96.40;;;;;;5114261;28;20149;-43
2022/07/04 01:24:31;;;;;;;5.63;4.05;;;15.10;96.30;;;;;;5110463;28;20080;-42
2022/07/04 01:26:58;;;;;;;5.60;3.70;;;15.10;96.20;;;;;;5108591;28;20058;-43
2022/07/04 01:29:25;;;;;;;4.18;3.30;;;15.10;96.30;;;;;;5106384;28;20134;-43
2022/07/04 01:31:53;;;;;;;5.75;4.35;;;15.10;96.40;;;;;;5106894;27;20134;-43
2022/07/04 01:34:20;;;;;;;4.18;3.78;;;15.10;96.60;;;;;;5114285;27;20044;-42
2022/07/04 01:36:46;;;;;;;6.72;4.40;;;15.00;96.60;;;;;;5107794;27;20118;-43
2022/07/04 01:39:14;;;;;;;4.97;4.03;;;15.00;96.70;;;;;;5111567;27;20130;-42
2022/07/04 01:41:41;;;;;;;7.45;4.40;;;14.90;96.80;;;;;;5106392;28;20198;-42
2022/07/04 01:44:08;;;;;;;6.38;3.80;;;15.00;97.00;;;;;;5113770;28;20126;-42
2022/07/04 01:46:35;;;;;;;5.90;4.32;;;14.90;96.80;;;;;;5107140;27;20146;-43
2022/07/04 01:49:01;;;;;;;4.43;3.85;;;14.90;96.70;;;;;;5114642;28;20046;-43
2022/07/04 01:51:28;;;;;;;5.22;4.22;;;14.90;96.50;;;;;;5113508;27;20070;-43
2022/07/04 01:53:55;;;;;;;4.75;3.42;;;14.90;96.60;;;;;;5113739;28;20483;-42
2022/07/04 01:56:23;;;;;;;7.43;4.00;;;14.80;96.40;;;;;;5111704;28;20495;-42
2022/07/04 01:58:50;;;;;;;4.45;3.60;;;14.80;96.50;;;;;;5112733;28;20123;-43
2022/07/04 02:01:31;;;;;;;5.90;3.65;;;14.70;96.40;;;;;;5109681;28;20567;-43
2022/07/04 02:03:57;;;;;;;6.30;3.92;;;14.80;96.80;;;;;;5139864;27;20052;-42
2022/07/04 02:06:24;;;;;;;8.80;4.43;;;14.70;96.60;;;;;;5106610;28;20139;-43
2022/07/04 02:14:17;;;;;;;5.70;3.78;;;14.70;96.50;;;;;;5109517;27;20553;-42
2022/07/04 02:16:44;;;;;;;6.75;4.40;;;14.60;96.50;;;;;;5099802;28;20125;-43
2022/07/04 02:19:10;;;;;;;5.72;3.60;;;14.70;96.60;;;;;;5101199;28;20535;-43
2022/07/04 02:21:37;;;;;;;5.80;3.67;;;14.60;96.50;;;;;;5102136;27;20058;-43
2022/07/04 02:24:06;;;;;;;8.05;4.40;;;14.60;96.40;;;;;;5102638;27;20067;-43
2022/07/04 02:26:33;;;;;;;7.40;4.22;;;14.60;96.70;;;;;;5097484;28;20385;-42
2022/07/04 02:29:01;;;;;;;6.10;3.80;;;14.60;96.80;;;;;;5112547;27;20104;-43
2022/07/04 02:31:27;;;;;;;9.50;4.07;;;14.50;96.60;;;;;;5098058;28;20558;-44
2022/07/04 02:33:54;;;;;;;5.30;3.95;;;14.50;96.90;;;;;;5093745;28;20106;-44
2022/07/04 02:36:21;;;;;;;5.05;3.65;;;14.50;96.90;;;;;;5102308;28;20051;-43
2022/07/04 02:38:48;;;;;;;6.55;4.55;;;14.50;96.80;;;;;;5093476;28;20079;-42
2022/07/04 02:41:14;;;;;;;5.28;3.90;;;14.50;96.80;;;;;;5099694;28;20141;-43
2022/07/04 02:43:41;;;;;;;5.25;4.40;;;14.50;96.90;;;;;;5107898;28;20495;-42
2022/07/04 02:46:09;;;;;;;6.95;4.38;;;14.40;97.00;;;;;;5095224;28;20089;-43
2022/07/04 02:48:36;;;;;;;4.82;3.70;;;14.50;97.20;;;;;;5094560;28;20139;-43
2022/07/04 02:51:03;;;;;;;5.22;4.30;;;14.40;97.00;;;;;;5101867;28;20130;-43
2022/07/04 02:53:29;;;;;;;4.97;4.25;;;14.40;97.00;;;;;;5110142;28;20060;-44
2022/07/04 02:55:56;;;;;;;6.28;5.05;;;14.40;97.00;;;;;;5105419;28;20044;-43
2022/07/04 02:58:23;;;;;;;8.15;4.60;;;14.40;97.20;;;;;;5093442;28;20072;-44
2022/07/04 03:00:52;;;;;;;7.28;4.57;;;14.40;97.40;;;;;;5096842;27;20044;-42
2022/07/04 03:03:21;;;;;;;8.20;4.68;;;14.40;97.50;;;;;;5110579;28;20079;-43
2022/07/04 03:05:48;;;;;;;5.95;4.30;;;14.40;97.50;;;;;;5105387;28;20055;-42
2022/07/04 03:08:15;;;;;;;6.00;4.40;;;14.30;97.30;;;;;;5112143;28;20091;-42
2022/07/04 03:10:41;;;;;;;11.00;6.40;;;14.30;97.10;;;;;;5103861;28;20127;-43
2022/07/04 03:13:08;;;;;;;6.18;4.60;;;14.30;97.90;;;;;;5104981;28;20123;-43
2022/07/04 03:15:35;;;;;;;9.93;4.95;;;14.30;98.00;;;;;;5096607;28;20457;-43
2022/07/04 03:18:02;;;;;;;7.30;4.93;;;14.30;97.90;;;;;;5106072;28;20590;-42
2022/07/04 03:20:30;;;;;;;6.38;4.70;;;14.20;97.90;;;;;;5103187;28;20144;-42
2022/07/04 03:22:57;;;;;;;7.88;5.30;;;14.30;98.00;;;;;;5106145;28;20452;-42
2022/07/04 03:25:24;;;;;;;7.93;5.32;;;14.20;98.00;;;;;;5105563;28;20048;-43
2022/07/04 03:27:51;;;;;;;8.40;5.18;;;14.20;98.10;;;;;;5107687;28;20047;-43
2022/07/04 03:30:18;;;;;;;5.57;4.90;;;14.20;98.20;;;;;;5097950;28;20134;-42
2022/07/04 03:32:44;;;;;;;9.98;6.40;;;14.20;98.30;;;;;;5104058;28;20471;-42
2022/07/04 03:35:11;;;;;;;4.60;3.72;;;14.20;98.50;;;;;;5092732;28;20087;-42
2022/07/04 03:37:39;;;;;;;7.28;5.90;;;14.20;98.30;;;;;;5110567;28;20077;-42
2022/07/04 03:40:07;;;;;;;5.05;4.03;;;14.20;98.50;;;;;;5098851;27;20059;-43
2022/07/04 03:42:34;;;;;;;7.35;4.70;;;14.20;98.40;;;;;;5096856;28;20140;-42
2022/07/04 03:45:01;;;;;;;10.60;5.82;;;14.20;98.20;;;;;;5104421;27;20139;-43
2022/07/04 03:47:27;;;;;;;6.72;5.68;;;14.20;98.50;;;;;;5110213;28;20050;-42
2022/07/04 03:49:54;;;;;;;5.15;4.65;;;14.10;98.60;;;;;;5103944;27;20059;-43
2022/07/04 03:52:21;;;;;;;8.13;5.15;;;14.20;98.40;;;;;;5109332;27;20321;-41
2022/07/04 03:54:49;;;;;;;10.77;7.50;;;14.10;98.60;;;;;;5115022;28;20060;-43
2022/07/04 03:57:16;;;;;;;10.70;7.55;;;14.10;99.20;;;;;;5102105;27;20067;-42
2022/07/04 03:59:42;;;;;;;6.60;5.40;;;14.10;99.90;;;;;;5110459;27;20082;-42
2022/07/04 04:02:09;;;;;;;5.90;4.47;;;14.20;99.90;;;;;;5103622;27;20143;-42
2022/07/04 04:07:20;;;;;;;8.50;6.50;;;14.10;99.90;;;;;;5100290;27;20251;-43
2022/07/04 04:09:48;;;;;;;11.38;8.70;;;14.10;99.90;;;;;;5101641;27;20044;-42
2022/07/04 04:12:15;;;;;;;10.85;8.15;;;14.10;99.90;;;;;;5116560;28;20078;-42
2022/07/04 04:14:42;;;;;;;12.13;6.50;;;14.10;99.90;;;;;;5106282;27;20136;-42
2022/07/04 04:17:08;;;;;;;13.40;8.32;;;14.10;99.90;;;;;;5105656;27;20100;-42
2022/07/04 04:19:35;;;;;;;11.80;8.25;;;14.10;99.90;;;;;;5104268;28;20093;-42
2022/07/04 04:22:02;;;;;;;17.02;8.90;;;14.10;99.90;;;;;;5114726;28;20097;-42
2022/07/04 04:24:29;;;;;;;9.57;6.50;;;14.20;99.90;;;;;;5103530;28;20131;-42
2022/07/04 04:26:57;;;;;;;14.18;7.47;;;14.20;99.90;;;;;;5114962;28;20139;-42
2022/07/04 04:29:24;;;;;;;14.45;8.95;;;14.20;99.90;;;;;;5113706;27;20048;-42
2022/07/04 04:31:50;;;;;;;12.85;7.43;;;14.20;99.90;;;;;;5110405;27;20445;-41
2022/07/04 04:34:17;;;;;;;16.02;9.30;;;14.30;99.90;;;;;;5104123;28;20499;-42
2022/07/04 04:36:44;;;;;;;14.25;9.80;;;14.20;99.90;;;;;;5107078;27;20047;-42
2022/07/04 04:39:11;;;;;;;20.63;11.05;;;14.30;99.90;;;;;;5098376;27;20224;-43
2022/07/04 04:41:37;;;;;;;18.23;10.45;;;14.30;99.90;;;;;;5107348;27;20132;-43
2022/07/04 04:44:06;;;;;;;19.63;13.05;;;14.30;99.90;;;;;;5113182;28;20051;-43
2022/07/04 04:46:33;;;;;;;18.23;12.30;;;14.30;99.90;;;;;;5099618;28;20476;-44
2022/07/04 04:49:00;;;;;;;20.30;12.30;;;14.30;99.90;;;;;;5114021;28;20079;-43
2022/07/04 04:51:26;;;;;;;20.63;10.88;;;14.40;99.90;;;;;;5104572;27;20131;-43
2022/07/04 04:53:53;;;;;;;15.63;11.10;;;14.40;99.90;;;;;;5099436;27;20079;-43
2022/07/04 04:56:20;;;;;;;20.50;12.05;;;14.40;99.90;;;;;;5101044;27;20051;-43
2022/07/04 04:58:47;;;;;;;13.48;8.45;;;14.50;99.90;;;;;;5108176;27;20043;-43
2022/07/04 05:01:15;;;;;;;13.48;9.10;;;14.50;99.90;;;;;;5109207;28;20052;-43
2022/07/04 05:03:42;;;;;;;15.00;8.88;;;14.50;99.90;;;;;;5111877;27;20066;-43
2022/07/04 05:06:09;;;;;;;14.88;8.88;;;14.60;99.90;;;;;;5101559;28;20138;-43
2022/07/04 05:08:36;;;;;;;13.07;8.70;;;14.60;99.90;;;;;;5109834;28;20127;-43
2022/07/04 05:11:03;;;;;;;16.30;8.63;;;14.60;99.90;;;;;;5105221;27;20986;-43
2022/07/04 05:13:29;;;;;;;17.98;8.30;;;14.60;99.90;;;;;;5122286;27;20043;-43
2022/07/04 05:15:56;;;;;;;15.05;8.25;;;14.70;99.90;;;;;;5113232;28;20146;-43
2022/07/04 05:18:24;;;;;;;11.52;7.35;;;14.80;99.90;;;;;;5112513;27;20044;-42
2022/07/04 05:20:51;;;;;;;13.55;8.38;;;14.80;99.90;;;;;;5111155;27;20134;-43
2022/07/04 05:23:18;;;;;;;15.20;8.63;;;14.90;99.90;;;;;;5113801;28;20467;-42
2022/07/04 05:25:45;;;;;;;17.50;7.53;;;15.00;99.90;;;;;;5113754;28;20499;-43
2022/07/04 05:28:11;;;;;;;14.18;7.13;;;15.10;99.90;;;;;;5113472;28;20097;-43
2022/07/04 05:30:38;;;;;;;10.95;7.55;;;15.20;99.90;;;;;;5111843;28;20451;-43
2022/07/04 05:33:05;;;;;;;14.88;7.15;;;15.20;99.90;;;;;;5105840;28;20452;-43
2022/07/04 05:35:33;;;;;;;12.60;6.78;;;15.30;99.90;;;;;;5109283;27;20044;-42
2022/07/04 05:38:00;;;;;;;14.82;8.13;;;15.40;99.90;;;;;;5104696;27;20043;-42
2022/07/04 05:40:27;;;;;;;12.30;6.80;;;15.50;99.90;;;;;;5110247;28;20086;-43
2022/07/04 05:42:54;;;;;;;12.07;7.10;;;15.60;99.90;;;;;;5103063;28;20108;-43
2022/07/04 05:45:20;;;;;;;10.60;5.72;;;15.70;99.90;;;;;;5097587;28;20052;-43
2022/07/04 05:47:47;;;;;;;9.55;6.13;;;15.80;99.90;;;;;;5105385;27;20043;-43
2022/07/04 05:50:14;;;;;;;13.43;6.40;;;15.90;99.90;;;;;;5111122;28;20134;-43
2022/07/04 05:52:42;;;;;;;10.93;5.78;;;16.10;99.90;;;;;;5114284;28;20094;-43
2022/07/04 05:55:10;;;;;;;13.75;5.68;;;16.20;99.90;;;;;;5113208;28;20055;-42
2022/07/04 05:57:36;;;;;;;11.27;6.55;;;16.30;99.90;;;;;;5114026;28;20143;-42
2022/07/04 06:00:05;;;;;;;12.23;5.97;;;16.30;99.90;;;;;;5114076;28;20131;-42
2022/07/04 06:02:31;;;;;;;9.52;5.35;;;16.40;99.90;;;;;;5112617;28;20048;-42
2022/07/04 06:04:58;;;;;;;9.35;4.63;;;16.50;99.90;;;;;;5101143;28;20056;-43
2022/07/04 06:07:25;;;;;;;9.73;4.60;;;16.70;99.90;;;;;;5093743;28;20091;-43
2022/07/04 06:09:53;;;;;;;9.73;4.88;;;16.80;99.90;;;;;;5092680;28;20086;-43
2022/07/04 06:12:20;;;;;;;9.25;4.75;;;16.90;99.90;;;;;;5096560;28;20135;-43
2022/07/04 06:14:46;;;;;;;12.63;4.72;;;17.00;99.90;;;;;;5113881;28;20087;-43
2022/07/04 06:17:13;;;;;;;9.10;4.55;;;17.20;99.90;;;;;;5113915;28;20130;-43
2022/07/04 06:19:40;;;;;;;11.15;4.70;;;17.30;99.90;;;;;;5101956;27;20106;-43
2022/07/04 06:22:07;;;;;;;10.32;4.57;;;17.50;99.90;;;;;;5102197;28;20126;-41
2022/07/04 06:24:33;;;;;;;11.80;4.72;;;17.50;99.90;;;;;;5113668;28;20047;-41
2022/07/04 06:27:03;;;;;;;8.20;4.18;;;17.60;99.90;;;;;;5112320;28;20139;-42
2022/07/04 06:29:29;;;;;;;12.68;5.30;;;17.70;99.90;;;;;;5113377;28;20506;-42
2022/07/04 06:31:56;;;;;;;11.85;4.07;;;17.90;99.90;;;;;;5109948;28;20505;-43
2022/07/04 06:37:07;;;;;;;9.70;4.50;;;18.10;99.90;;;;;;5105120;28;20044;-42
2022/07/04 06:39:34;;;;;;;12.35;4.70;;;18.20;99.90;;;;;;5098661;28;20139;-43
2022/07/04 06:42:02;;;;;;;10.23;4.43;;;18.30;99.90;;;;;;5092738;28;20090;-43
2022/07/04 06:44:29;;;;;;;10.65;4.53;;;18.50;99.90;;;;;;5104998;28;20131;-44
2022/07/04 06:46:55;;;;;;;15.32;5.03;;;18.60;99.90;;;;;;5110094;27;20134;-43
2022/07/04 06:49:22;;;;;;;11.95;4.57;;;18.60;99.90;;;;;;5110812;27;20074;-42
2022/07/04 06:51:49;;;;;;;11.07;4.03;;;18.80;99.90;;;;;;5110332;27;20044;-43
2022/07/04 06:54:16;;;;;;;15.82;4.65;;;18.90;99.90;;;;;;5111393;28;20495;-42
2022/07/04 06:56:43;;;;;;;10.98;4.07;;;19.00;99.90;;;;;;5108352;28;20067;-43
2022/07/04 06:59:11;;;;;;;13.60;4.18;;;19.00;99.90;;;;;;5111648;28;20054;-42
2022/07/04 07:01:37;;;;;;;11.02;4.57;;;19.00;99.90;;;;;;5108476;28;20047;-43
2022/07/04 07:04:04;;;;;;;9.50;4.25;;;19.10;99.90;;;;;;5104176;28;20083;-43
2022/07/04 07:06:31;;;;;;;11.48;4.00;;;19.10;99.90;;;;;;5091407;28;20544;-42
2022/07/04 07:08:58;;;;;;;13.55;4.00;;;19.20;99.90;;;;;;5103048;27;20569;-43
2022/07/04 07:11:25;;;;;;;13.50;4.43;;;19.40;99.90;;;;;;5112579;28;20134;-44
2022/07/04 07:13:52;;;;;;;9.38;3.90;;;19.60;99.90;;;;;;5110553;28;20052;-43
2022/07/04 07:16:20;;;;;;;11.48;4.18;;;19.80;99.90;;;;;;5102225;28;20144;-42
2022/07/04 07:18:48;;;;;;;13.82;4.53;;;19.90;99.60;;;;;;5110898;28;20456;-43
2022/07/04 07:21:15;;;;;;;14.38;4.32;;;19.90;99.30;;;;;;5111380;28;20047;-43
2022/07/04 07:23:42;;;;;;;12.23;4.13;;;19.90;99.00;;;;;;5108929;28;20633;-43
2022/07/04 07:26:09;;;;;;;11.35;3.38;;;20.00;99.00;;;;;;5096056;28;20470;-43
2022/07/04 07:28:36;;;;;;;13.07;4.20;;;20.00;98.90;;;;;;5112748;28;20047;-42
2022/07/04 07:31:03;;;;;;;10.68;4.20;;;20.10;98.90;;;;;;5111505;28;20134;-43
2022/07/04 07:33:31;;;;;;;7.53;3.40;;;20.20;98.90;;;;;;5112860;28;20052;-43
2022/07/04 07:35:58;;;;;;;10.70;4.55;;;20.40;98.80;;;;;;5111651;28;20124;-43
2022/07/04 07:38:25;;;;;;;10.15;3.70;;;20.60;98.50;;;;;;5101442;28;20044;-43
2022/07/04 07:40:52;;;;;;;9.82;3.60;;;20.80;98.20;;;;;;5112382;28;20094;-43
2022/07/04 07:43:19;;;;;;;11.18;4.10;;;20.80;97.90;;;;;;5112641;28;20479;-43
2022/07/04 07:45:46;;;;;;;11.70;4.25;;;20.80;97.90;;;;;;5111323;28;20047;-43
2022/07/04 07:48:12;;;;;;;13.32;3.25;;;20.90;97.80;;;;;;5112876;28;20054;-42
2022/07/04 07:50:41;;;;;;;10.93;3.45;;;21.00;97.60;;;;;;5111471;28;20085;-43
2022/07/04 07:53:08;;;;;;;12.00;3.15;;;21.00;97.30;;;;;;5112881;28;20074;-43
2022/07/04 07:55:34;;;;;;;12.18;3.95;;;21.00;97.30;;;;;;5110495;28;20062;-42
2022/07/04 07:58:02;;;;;;;16.17;4.05;;;20.90;97.20;;;;;;5111565;28;20090;-42
2022/07/04 08:00:28;;;;;;;10.93;4.05;;;20.80;97.10;;;;;;5111477;28;20055;-42
2022/07/04 08:05:41;;;;;;;10.80;3.17;;;20.80;97.50;;;;;;5102060;28;20126;-42
2022/07/04 08:08:09;;;;;;;14.00;3.05;;;21.00;97.10;;;;;;5093097;28;20143;-42
2022/07/04 08:10:37;;;;;;;10.77;3.30;;;21.10;96.30;;;;;;5105809;28;20051;-43
2022/07/04 08:13:03;;;;;;;8.10;2.50;;;21.30;96.00;;;;;;5106729;28;20118;-43
2022/07/04 08:15:30;;;;;;;8.13;2.40;;;21.60;95.50;;;;;;5091199;28;20048;-43
2022/07/04 08:17:58;;;;;;;7.13;2.47;;;21.70;95.00;;;;;;5093296;28;20059;-43
2022/07/04 08:20:24;;;;;;;6.65;2.00;;;21.80;94.90;;;;;;5139350;27;20055;-42
2022/07/04 08:22:52;;;;;;;7.78;2.00;;;21.80;94.40;;;;;;5092325;28;20131;-44
2022/07/04 08:25:19;;;;;;;9.23;1.90;;;21.90;94.20;;;;;;5099854;28;20132;-42
2022/07/04 08:27:46;;;;;;;6.60;1.77;;;22.10;93.70;;;;;;5109030;27;20063;-43
2022/07/04 08:30:13;;;;;;;8.55;2.30;;;22.30;93.70;;;;;;5107212;27;20376;-43
2022/07/04 08:32:40;;;;;;;7.40;1.90;;;22.50;93.30;;;;;;5112281;27;20097;-43
2022/07/04 08:35:07;;;;;;;7.22;2.40;;;22.70;92.90;;;;;;5103265;27;20491;-44
2022/07/04 08:37:34;;;;;;;8.77;1.98;;;22.90;92.20;;;;;;5114923;27;20122;-43
2022/07/04 08:40:06;;;;;;;6.22;1.70;;;23.10;91.50;;;;;;5107097;27;20075;-43
2022/07/04 08:42:36;;;;;;;7.50;1.58;;;23.20;91.00;;;;;;5098529;27;20040;-44
2022/07/04 08:45:03;;;;;;;5.68;1.88;;;23.20;90.90;;;;;;5114495;27;20059;-42
2022/07/04 08:47:31;;;;;;;6.32;1.90;;;23.40;90.50;;;;;;5108788;27;20051;-42
2022/07/04 08:50:00;;;;;;;5.80;1.98;;;23.50;90.10;;;;;;5098968;27;20101;-42
2022/07/04 08:52:32;;;;;;;5.10;1.60;;;23.60;89.40;;;;;;5103771;28;20054;-43
2022/07/04 09:00:28;;;;;;;8.80;2.20;;;24.00;88.50;;;;;;5120306;27;20048;-42
2022/07/04 09:02:55;;;;;;;6.35;1.98;;;24.00;87.00;;;;;;5113030;27;20056;-43
2022/07/04 09:05:22;;;;;;;8.43;2.15;;;24.00;86.10;;;;;;5106442;27;20055;-42
2022/07/04 09:07:49;;;;;;;7.80;1.95;;;24.10;85.70;;;;;;5110186;28;20117;-43
2022/07/04 09:10:15;;;;;;;5.35;1.70;;;24.10;85.30;;;;;;5114356;28;20083;-44
2022/07/04 09:12:43;;;;;;;7.97;2.03;;;24.00;85.10;;;;;;5115248;28;20104;-43
2022/07/04 09:15:10;;;;;;;6.00;1.60;;;23.90;86.00;;;;;;5113918;28;20342;-43
2022/07/04 09:17:37;;;;;;;5.28;1.77;;;23.80;86.00;;;;;;5115129;28;20090;-44
2022/07/04 09:20:14;;;;;;;5.75;1.75;;;23.60;86.10;;;;;;5104121;27;20086;-43
2022/07/04 09:22:41;;;;;;;6.25;1.52;;;23.50;85.80;;;;;;5106060;27;20182;-42
2022/07/04 09:25:12;;;;;;;5.85;1.60;;;23.30;86.10;;;;;;5101626;27;20131;-43
2022/07/04 09:27:40;;;;;;;3.75;1.08;;;23.20;86.00;;;;;;5112135;28;20100;-42
2022/07/04 09:30:09;;;;;;;7.10;1.73;;;23.10;86.50;;;;;;5110001;28;20050;-43
2022/07/04 09:32:40;;;;;;;3.78;1.02;;;23.20;85.70;;;;;;5094537;28;20137;-43
2022/07/04 09:35:08;;;;;;;4.15;1.33;;;23.30;85.90;;;;;;5094355;28;20040;-43
2022/07/04 09:37:37;;;;;;;4.70;1.50;;;23.50;85.30;;;;;;5094213;28;20475;-43
2022/07/04 09:40:05;;;;;;;5.80;1.33;;;23.70;84.90;;;;;;5111533;27;20105;-42
2022/07/04 09:42:41;;;;;;;6.68;1.50;;;23.90;84.60;;;;;;5113415;28;20074;-43
2022/07/04 09:45:11;;;;;;;4.45;1.48;;;24.20;83.60;;;;;;5108663;28;20067;-43
2022/07/04 09:47:39;;;;;;;4.57;1.50;;;24.40;82.10;;;;;;5108586;27;20070;-43
2022/07/04 09:50:07;;;;;;;3.70;1.52;;;24.50;81.80;;;;;;5109499;27;20069;-43
2022/07/04 09:52:44;;;;;;;5.82;1.73;;;24.40;81.60;;;;;;5112909;28;20551;-43
2022/07/04 09:55:11;;;;;;;5.57;1.48;;;24.40;80.70;;;;;;5095345;28;20101;-44
2022/07/04 09:57:38;;;;;;;4.25;1.15;;;24.30;80.40;;;;;;5112311;28;20104;-44
2022/07/04 10:00:19;;;;;;;3.78;1.23;;;24.30;80.40;;;;;;5099731;27;20079;-43
2022/07/04 10:02:46;;;;;;;8.73;2.08;;;24.20;80.70;;;;;;5111583;28;20122;-42
2022/07/04 10:05:13;;;;;;;2.78;0.93;;;24.20;81.00;;;;;;5111384;27;20499;-43
2022/07/04 10:07:43;;;;;;;2.88;0.95;;;24.40;80.90;;;;;;5107786;27;20096;-43
2022/07/04 10:10:24;;;;;;;5.47;1.30;;;24.50;79.40;;;;;;5111377;27;20107;-42
2022/07/04 10:12:50;;;;;;;3.55;1.15;;;24.60;78.40;;;;;;5102188;27;20494;-42
2022/07/04 10:15:19;;;;;;;2.53;0.90;;;24.50;78.10;;;;;;5107759;27;20075;-42
2022/07/04 10:17:45;;;;;;;5.00;1.08;;;24.30;77.60;;;;;;5106294;27;20921;-43
2022/07/04 10:20:13;;;;;;;2.08;0.90;;;24.20;77.30;;;;;;5112606;28;20491;-43
2022/07/04 10:22:39;;;;;;;4.30;1.25;;;24.00;77.10;;;;;;5108390;27;20083;-43
2022/07/04 10:25:07;;;;;;;5.10;1.20;;;23.90;77.50;;;;;;5110712;28;20048;-42
2022/07/04 10:27:34;;;;;;;4.60;1.38;;;23.80;77.90;;;;;;5113709;28;20130;-42
2022/07/04 10:30:01;;;;;;;3.20;1.10;;;23.70;77.60;;;;;;5113967;28;20075;-43
2022/07/04 10:32:29;;;;;;;4.10;0.98;;;23.60;77.80;;;;;;5109288;28;20475;-43
2022/07/04 10:34:56;;;;;;;2.25;0.95;;;23.50;78.40;;;;;;5102784;27;20571;-43
2022/07/04 10:37:23;;;;;;;3.90;1.00;;;23.50;78.90;;;;;;5101917;27;20048;-43
2022/07/04 10:39:50;;;;;;;4.70;1.20;;;23.50;79.40;;;;;;5093932;28;20079;-42
2022/07/04 10:42:23;;;;;;;5.45;1.30;;;23.50;79.50;;;;;;5093895;28;20056;-43
2022/07/04 10:44:50;;;;;;;3.47;1.23;;;23.70;79.10;;;;;;5104857;27;20076;-43
2022/07/04 10:47:23;;;;;;;3.88;1.73;;;23.90;78.70;;;;;;5095419;27;20083;-44
2022/07/04 10:49:52;;;;;;;6.13;1.50;;;24.10;78.10;;;;;;5091840;28;20048;-44
2022/07/04 10:52:19;;;;;;;4.72;1.38;;;24.30;78.30;;;;;;5107406;27;20079;-43
2022/07/04 10:54:45;;;;;;;2.20;1.30;;;24.50;77.60;;;;;;5108621;28;20131;-44
2022/07/04 10:57:16;;;;;;;3.42;1.30;;;24.60;75.90;;;;;;5092760;28;20037;-43
2022/07/04 10:59:43;;;;;;;3.35;1.30;;;24.70;76.10;;;;;;5093125;28;20139;-43
2022/07/04 11:02:26;;;;;;;5.47;1.63;;;24.70;75.60;;;;;;5093603;27;20086;-44
2022/07/04 11:05:02;;;;;;;4.93;1.50;;;24.70;76.20;;;;;;5101840;28;20082;-43
2022/07/04 11:07:59;;;;;;;6.55;1.50;;;24.60;75.80;;;;;;5110585;28;20138;-43
2022/07/04 11:10:27;;;;;;;4.38;1.33;;;24.80;77.00;;;;;;5100407;27;20040;-44
2022/07/04 11:13:17;;;;;;;5.72;1.17;;;25.00;76.20;;;;;;5092580;28;20044;-43
2022/07/04 11:16:03;;;;;;;4.93;1.95;;;25.30;75.60;;;;;;5092991;28;20411;-43
2022/07/04 11:18:31;;;;;;;3.17;1.30;;;25.50;74.50;;;;;;5104844;28;20467;-43
2022/07/04 11:20:59;;;;;;;5.28;1.50;;;25.60;74.90;;;;;;5099570;28;20490;-43
2022/07/04 11:23:26;;;;;;;3.17;1.42;;;25.80;72.50;;;;;;5110372;28;20080;-43
2022/07/04 11:25:54;;;;;;;6.18;1.25;;;25.80;72.30;;;;;;5107116;28;20044;-43
2022/07/04 11:28:21;;;;;;;5.07;1.17;;;25.80;70.90;;;;;;5105601;28;20047;-43
2022/07/04 11:30:51;;;;;;;4.18;1.10;;;25.80;70.90;;;;;;5091807;28;20130;-43
2022/07/04 11:33:19;;;;;;;2.15;1.00;;;26.00;69.10;;;;;;5104087;28;20074;-43
2022/07/04 11:36:06;;;;;;;3.28;1.13;;;26.10;69.60;;;;;;5110214;28;20051;-42
2022/07/04 11:38:50;;;;;;;3.03;1.17;;;26.20;70.10;;;;;;5091297;28;20090;-42
2022/07/04 11:46:50;;;;;;;4.20;1.05;;;26.70;67.50;;;;;;5102278;28;20396;-43
2022/07/04 11:49:17;;;;;;;6.30;1.20;;;26.70;65.30;;;;;;5108510;28;20458;-43
2022/07/04 11:51:46;;;;;;;3.70;0.90;;;26.70;64.20;;;;;;5110151;28;20096;-43
2022/07/04 11:54:13;;;;;;;2.58;0.95;;;26.60;63.10;;;;;;5111199;28;20083;-43
2022/07/04 11:56:40;;;;;;;3.83;1.00;;;26.70;63.70;;;;;;5111138;28;20043;-43
2022/07/04 11:59:11;;;;;;;2.33;0.85;;;26.70;63.00;;;;;;5109324;28;20082;-43
2022/07/04 12:01:38;;;;;;;3.28;1.10;;;26.80;63.20;;;;;;5111211;27;20047;-43
2022/07/04 12:04:15;;;;;;;4.00;0.90;;;26.80;62.80;;;;;;5107794;27;20097;-44
2022/07/04 12:06:42;;;;;;;3.83;0.95;;;26.90;63.10;;;;;;5109563;27;20123;-43
2022/07/04 12:09:10;;;;;;;3.28;0.85;;;27.10;62.80;;;;;;5111102;27;20138;-43
2022/07/04 12:11:56;;;;;;;2.47;1.10;;;27.00;63.90;;;;;;5113560;27;20079;-42
2022/07/04 12:14:23;;;;;;;3.58;1.00;;;26.90;63.50;;;;;;5098845;27;20076;-43
2022/07/04 12:16:50;;;;;;;3.63;1.13;;;26.80;64.00;;;;;;5106382;27;20511;-43
2022/07/04 12:19:16;;;;;;;3.38;1.27;;;26.70;62.40;;;;;;5113509;27;20126;-43
2022/07/04 12:21:43;;;;;;;5.82;1.17;;;26.60;62.30;;;;;;5114584;28;20131;-43
2022/07/04 12:24:14;;;;;;;6.25;0.73;;;26.50;61.00;;;;;;5113246;28;20074;-43
2022/07/04 12:26:47;;;;;;;2.63;0.90;;;26.20;60.40;;;;;;5111698;27;20059;-43
2022/07/04 12:29:21;;;;;;;3.08;1.15;;;26.20;61.00;;;;;;5113275;27;20368;-43
2022/07/04 12:31:53;;;;;;;4.05;1.17;;;26.30;60.70;;;;;;5113849;27;20078;-43
2022/07/04 12:34:19;;;;;;;2.22;0.80;;;26.40;59.60;;;;;;5103342;27;20063;-43
2022/07/04 12:36:50;;;;;;;4.63;0.98;;;26.40;59.90;;;;;;5094613;28;20082;-44
2022/07/04 12:39:29;;;;;;;3.30;0.77;;;26.60;58.70;;;;;;5102037;27;20126;-44
2022/07/04 12:42:07;;;;;;;7.28;1.17;;;26.80;57.00;;;;;;5095547;28;20056;-44
2022/07/04 12:44:33;;;;;;;3.47;0.77;;;26.90;56.60;;;;;;5108381;28;20075;-43
2022/07/04 12:47:00;;;;;;;3.13;0.85;;;26.80;56.50;;;;;;5115842;28;20152;-42
2022/07/04 12:49:27;;;;;;;1.63;0.65;;;27.00;56.50;;;;;;5107286;27;20115;-44
2022/07/04 12:52:04;;;;;;;1.45;0.60;;;27.20;55.70;;;;;;5095330;28;20499;-43
2022/07/04 12:54:32;;;;;;;4.43;0.60;;;27.20;53.60;;;;;;5102625;27;20135;-42
2022/07/04 12:57:10;;;;;;;3.33;0.60;;;27.20;55.10;;;;;;5102620;27;20479;-45
2022/07/04 12:59:37;;;;;;;2.55;0.73;;;27.20;54.60;;;;;;5096785;28;20048;-43
2022/07/04 13:02:04;;;;;;;3.17;0.60;;;27.20;55.10;;;;;;5098807;28;20101;-43
2022/07/04 13:04:32;;;;;;;1.40;0.70;;;27.30;55.80;;;;;;5110344;27;20047;-43
2022/07/04 13:07:01;;;;;;;2.47;0.77;;;27.40;55.20;;;;;;5111070;28;20062;-43
2022/07/04 13:09:28;;;;;;;5.68;1.00;;;27.50;54.70;;;;;;5114198;28;20051;-44
2022/07/04 13:14:40;;;;;;;4.13;0.65;;;27.50;55.30;;;;;;5105335;27;20047;-43